Sidi Ifni, Morocco
Current Conditions -  °F | °C
As of 3:00 PM on Thursday 18 Dec 2014 (Local Time) from GMAG Reporting Station
Clear Clear  
Wind Chill: 72°   Ceiling: Unl
Heat Index: 72°   Visibility: 6mi
Dew Point: 30°   Wind: 2mph
Humidity: 22%   Direction: 160°SSE
Pressure: 30.21"   Gusts: NA
Location:  29.38°N, 10.18°W
Report Text: GMAG 181400Z 16002KT CAVOK 22/M01 Q1023 NOSIG
Loading
Personal Weather Stations






























Interactive Weather Map New forecast layout! Learn more

10-Day Weather Forecast

Advertisements
Track Severe Weather on mobile